createdAt,value
2022-12-31T00:01:49.236Z,62.30
2022-12-31T00:04:18.128Z,63.07
2022-12-31T00:06:46.708Z,62.53
2022-12-31T00:09:15.101Z,60.73
2022-12-31T00:11:43.715Z,61.17
2022-12-31T00:14:12.095Z,61.77
2022-12-31T00:16:41.940Z,61.97
2022-12-31T00:19:12.844Z,63.70
2022-12-31T00:21:41.304Z,56.20
2022-12-31T00:24:09.929Z,60.47
2022-12-31T00:26:38.438Z,58.67
2022-12-31T00:29:07.326Z,63.50
2022-12-31T00:31:36.843Z,54.97
2022-12-31T00:34:05.767Z,58.40
2022-12-31T00:36:40.137Z,62.40
2022-12-31T00:39:09.534Z,56.97
2022-12-31T00:41:38.210Z,51.83
2022-12-31T00:44:06.709Z,51.37
2022-12-31T00:49:02.433Z,49.30
2022-12-31T00:51:31.266Z,42.37
2022-12-31T00:54:01.245Z,43.77
2022-12-31T00:56:30.422Z,46.60
2022-12-31T00:58:59.124Z,44.97
2022-12-31T01:01:28.434Z,41.73
2022-12-31T01:03:57.869Z,46.30
2022-12-31T01:06:26.438Z,44.97
2022-12-31T01:08:55.807Z,43.53
2022-12-31T01:11:29.456Z,37.53
2022-12-31T01:13:59.067Z,37.73
2022-12-31T01:16:28.486Z,40.50
2022-12-31T01:18:56.919Z,35.80
2022-12-31T01:21:25.466Z,40.70
2022-12-31T01:23:54.052Z,37.10
2022-12-31T01:26:22.720Z,37.03
2022-12-31T01:28:52.505Z,36.47
2022-12-31T01:31:21.705Z,37.70
2022-12-31T01:33:50.329Z,32.27
2022-12-31T01:36:25.366Z,35.90
2022-12-31T01:38:54.590Z,34.50
2022-12-31T01:41:24.087Z,38.07
2022-12-31T01:43:55.243Z,36.73
2022-12-31T01:46:27.592Z,31.00
2022-12-31T01:48:58.099Z,31.37
2022-12-31T01:51:27.560Z,33.73
2022-12-31T01:53:56.498Z,33.07
2022-12-31T01:56:25.681Z,39.70
2022-12-31T01:58:56.205Z,33.43
2022-12-31T02:01:27.322Z,35.33
2022-12-31T02:03:56.235Z,33.40
2022-12-31T02:06:25.890Z,35.13
2022-12-31T02:08:54.310Z,32.53
2022-12-31T02:11:23.960Z,33.93
2022-12-31T02:13:58.136Z,29.57
2022-12-31T02:16:32.426Z,27.43
2022-12-31T02:19:03.335Z,31.73
2022-12-31T02:21:47.010Z,32.47
2022-12-31T02:24:33.253Z,32.93
2022-12-31T02:27:03.883Z,31.40
2022-12-31T02:29:59.073Z,28.97
2022-12-31T02:32:32.825Z,33.17
2022-12-31T02:35:03.104Z,30.10
2022-12-31T02:37:32.245Z,31.63
2022-12-31T02:40:01.016Z,31.77
2022-12-31T02:42:29.450Z,31.57
2022-12-31T02:44:57.947Z,30.03
2022-12-31T02:47:32.133Z,34.10
2022-12-31T02:50:07.207Z,30.20
2022-12-31T02:52:41.775Z,29.27
2022-12-31T02:55:13.455Z,28.13
2022-12-31T02:57:44.048Z,32.13
2022-12-31T03:00:32.593Z,34.83
2022-12-31T03:03:01.787Z,28.90
2022-12-31T03:05:32.916Z,27.40
2022-12-31T03:08:01.500Z,32.03
2022-12-31T03:10:29.965Z,29.83
2022-12-31T03:12:58.424Z,28.80
2022-12-31T03:15:27.798Z,31.87
2022-12-31T03:17:58.608Z,27.03
2022-12-31T03:20:46.750Z,29.97
2022-12-31T03:23:17.763Z,30.23
2022-12-31T03:25:45.535Z,26.60
2022-12-31T03:28:14.990Z,30.27
2022-12-31T03:30:49.499Z,28.90
2022-12-31T03:33:18.410Z,28.17
2022-12-31T03:35:47.977Z,28.23
2022-12-31T03:38:18.155Z,29.70
2022-12-31T03:40:47.925Z,29.83
2022-12-31T03:43:16.461Z,33.77
2022-12-31T03:45:45.079Z,31.93
2022-12-31T03:48:13.594Z,36.90
2022-12-31T03:50:42.012Z,32.90
2022-12-31T03:53:10.524Z,28.83
2022-12-31T03:55:40.543Z,28.90
2022-12-31T03:58:09.001Z,34.60
2022-12-31T04:00:37.416Z,31.23
2022-12-31T04:03:05.989Z,33.53
2022-12-31T04:05:34.767Z,27.23
2022-12-31T04:08:03.247Z,27.97
2022-12-31T04:10:31.717Z,28.53
2022-12-31T04:13:04.475Z,27.37
2022-12-31T04:15:33.262Z,24.23
2022-12-31T04:18:01.795Z,26.23
2022-12-31T04:20:30.205Z,24.43
2022-12-31T04:22:58.621Z,27.73
2022-12-31T04:25:27.082Z,26.87
2022-12-31T04:27:55.534Z,22.47
2022-12-31T04:30:25.406Z,23.93
2022-12-31T04:32:53.882Z,25.33
2022-12-31T04:35:22.331Z,20.50
2022-12-31T04:37:50.782Z,24.57
2022-12-31T04:40:20.030Z,27.13
2022-12-31T04:42:48.405Z,33.30
2022-12-31T04:45:16.963Z,32.77
2022-12-31T04:47:46.757Z,37.00
2022-12-31T04:50:15.319Z,36.73
2022-12-31T04:52:43.760Z,35.97
2022-12-31T04:55:12.576Z,32.83
2022-12-31T04:57:41.068Z,34.63
2022-12-31T05:00:10.314Z,36.13
2022-12-31T05:02:38.896Z,31.87
2022-12-31T05:05:09.476Z,35.83
2022-12-31T05:07:37.906Z,34.03
2022-12-31T05:10:06.965Z,32.20
2022-12-31T05:12:35.393Z,30.90
2022-12-31T05:15:03.862Z,26.90
2022-12-31T05:17:32.297Z,26.00
2022-12-31T05:20:00.803Z,30.17
2022-12-31T05:22:30.771Z,26.63
2022-12-31T05:24:59.584Z,23.93
2022-12-31T05:27:28.657Z,26.37
2022-12-31T05:29:57.136Z,26.27
2022-12-31T05:32:25.701Z,30.17
2022-12-31T05:34:54.183Z,30.97
2022-12-31T05:37:22.719Z,31.17
2022-12-31T05:39:52.598Z,24.93
2022-12-31T05:42:21.015Z,27.17
2022-12-31T05:44:49.556Z,25.93
2022-12-31T05:47:19.180Z,25.43
2022-12-31T05:49:47.646Z,44.77
2022-12-31T05:52:16.179Z,34.27
2022-12-31T05:54:44.898Z,35.73
2022-12-31T05:57:14.679Z,32.80
2022-12-31T05:59:43.201Z,38.80
2022-12-31T06:02:11.627Z,34.53
2022-12-31T06:04:40.044Z,32.60
2022-12-31T06:07:08.665Z,37.03
2022-12-31T06:09:37.168Z,43.10
2022-12-31T06:12:05.776Z,34.27
2022-12-31T06:14:37.626Z,38.90
2022-12-31T06:17:09.272Z,40.07
2022-12-31T06:19:37.675Z,40.83
2022-12-31T06:22:06.150Z,69.03
2022-12-31T06:24:34.632Z,72.77
2022-12-31T06:27:03.019Z,53.03
2022-12-31T06:29:31.458Z,53.90
2022-12-31T06:32:01.353Z,51.87
2022-12-31T06:34:29.794Z,59.37
2022-12-31T06:36:58.263Z,47.47
2022-12-31T06:39:26.867Z,43.30
2022-12-31T06:41:55.331Z,41.70
2022-12-31T06:44:23.865Z,49.77
2022-12-31T06:46:52.582Z,41.50
2022-12-31T06:49:22.490Z,48.17
2022-12-31T06:51:51.017Z,47.63
2022-12-31T06:54:19.407Z,51.03
2022-12-31T06:56:48.121Z,48.47
2022-12-31T06:59:25.387Z,49.50
2022-12-31T07:02:05.022Z,50.00
2022-12-31T07:04:46.142Z,47.47
2022-12-31T07:07:18.885Z,46.07
2022-12-31T07:09:52.984Z,48.57
2022-12-31T07:12:25.286Z,50.57
2022-12-31T07:14:56.253Z,44.00
2022-12-31T07:17:31.846Z,48.43
2022-12-31T07:20:04.224Z,44.90
2022-12-31T07:22:32.915Z,42.53
2022-12-31T07:25:02.749Z,45.77
2022-12-31T07:27:41.857Z,41.70
2022-12-31T07:30:12.685Z,43.87
2022-12-31T07:32:54.340Z,46.27
2022-12-31T07:35:34.524Z,44.73
2022-12-31T07:38:08.193Z,43.43
2022-12-31T07:40:40.291Z,41.37
2022-12-31T07:43:11.918Z,43.07
2022-12-31T07:45:44.595Z,42.07
2022-12-31T07:48:20.676Z,41.87
2022-12-31T07:50:50.980Z,43.50
2022-12-31T07:53:19.666Z,44.37
2022-12-31T07:55:48.207Z,46.27
2022-12-31T07:58:21.545Z,40.83
2022-12-31T08:00:50.478Z,40.90
2022-12-31T08:03:26.377Z,43.30
2022-12-31T08:06:02.205Z,43.37
2022-12-31T08:08:37.226Z,40.03
2022-12-31T08:11:10.479Z,37.97
2022-12-31T08:13:39.316Z,42.87
2022-12-31T08:16:11.386Z,39.40
2022-12-31T08:18:40.221Z,41.33
2022-12-31T08:21:18.013Z,39.80
2022-12-31T08:23:52.532Z,41.07
2022-12-31T08:26:25.805Z,44.00
2022-12-31T08:28:59.725Z,40.20
2022-12-31T08:31:32.010Z,43.07
2022-12-31T08:34:06.291Z,137.47
2022-12-31T08:36:41.935Z,44.03
2022-12-31T08:39:17.688Z,46.53
2022-12-31T08:41:46.939Z,48.47
2022-12-31T08:44:19.907Z,54.17
2022-12-31T08:46:51.968Z,44.73
2022-12-31T08:49:20.617Z,37.73
2022-12-31T08:51:50.781Z,41.80
2022-12-31T08:54:19.462Z,42.53
2022-12-31T08:56:51.301Z,43.13
2022-12-31T08:59:28.750Z,44.57
2022-12-31T09:02:04.232Z,47.33
2022-12-31T09:04:37.874Z,49.17
2022-12-31T09:07:09.576Z,50.80
2022-12-31T09:09:41.102Z,48.63
2022-12-31T09:12:12.553Z,41.70
2022-12-31T09:14:47.061Z,36.43
2022-12-31T09:17:30.364Z,39.53
2022-12-31T09:19:59.176Z,47.37
2022-12-31T09:22:29.727Z,47.70
2022-12-31T09:24:58.408Z,40.10
2022-12-31T09:27:28.338Z,37.10
2022-12-31T09:30:01.016Z,31.83
2022-12-31T09:32:35.663Z,34.70
2022-12-31T09:35:07.939Z,35.87
2022-12-31T09:37:42.903Z,38.90
2022-12-31T09:40:35.465Z,39.83
2022-12-31T09:43:15.940Z,39.13
2022-12-31T09:46:05.532Z,33.50
2022-12-31T09:48:51.361Z,32.23
2022-12-31T09:51:26.762Z,39.03
2022-12-31T09:54:04.733Z,31.53
2022-12-31T09:56:37.976Z,35.37
2022-12-31T09:59:08.421Z,39.03
2022-12-31T10:01:39.811Z,32.73
2022-12-31T10:04:27.909Z,36.07
2022-12-31T10:07:02.579Z,33.67
2022-12-31T10:09:48.547Z,31.43
2022-12-31T10:12:34.007Z,32.57
2022-12-31T10:15:09.539Z,32.57
2022-12-31T10:17:43.209Z,31.80
2022-12-31T10:20:21.992Z,36.27
2022-12-31T10:23:02.060Z,37.43
2022-12-31T10:25:39.801Z,32.43
2022-12-31T10:28:12.863Z,28.30
2022-12-31T10:30:45.946Z,38.63
2022-12-31T10:33:18.205Z,37.93
2022-12-31T10:35:52.477Z,38.03
2022-12-31T10:38:27.803Z,31.60
2022-12-31T10:41:09.064Z,30.83
2022-12-31T10:43:52.277Z,30.17
2022-12-31T10:46:33.125Z,32.83
2022-12-31T10:49:28.698Z,37.93
2022-12-31T10:52:20.727Z,44.30
2022-12-31T10:54:57.809Z,38.83
2022-12-31T10:57:38.375Z,44.43
2022-12-31T11:00:14.277Z,36.83
2022-12-31T11:03:12.967Z,39.57
2022-12-31T11:06:02.026Z,40.73
2022-12-31T11:08:44.630Z,38.33
2022-12-31T11:11:19.799Z,41.80
2022-12-31T11:14:13.623Z,42.73
2022-12-31T11:16:48.336Z,37.53
2022-12-31T11:19:21.247Z,43.30
2022-12-31T11:21:53.982Z,38.73
2022-12-31T11:24:29.858Z,37.43
2022-12-31T11:27:08.551Z,39.93
2022-12-31T11:29:44.913Z,35.37
2022-12-31T11:32:24.552Z,31.97
2022-12-31T11:35:14.976Z,31.67
2022-12-31T11:37:46.216Z,35.20
2022-12-31T11:40:21.549Z,30.60
2022-12-31T11:42:54.104Z,26.20
2022-12-31T11:45:31.114Z,25.67
2022-12-31T11:50:54.439Z,28.07
2022-12-31T11:53:35.107Z,28.10
2022-12-31T11:56:08.457Z,24.73
2022-12-31T11:58:36.975Z,28.57
2022-12-31T12:01:11.628Z,30.53
2022-12-31T12:03:43.701Z,29.80
2022-12-31T12:06:13.525Z,31.60
2022-12-31T12:08:42.464Z,29.13
2022-12-31T12:11:18.942Z,34.50
2022-12-31T12:13:47.585Z,28.13
2022-12-31T12:16:17.772Z,30.20
2022-12-31T12:18:47.151Z,37.50
2022-12-31T12:21:16.358Z,35.30
2022-12-31T12:23:55.483Z,33.33
2022-12-31T12:26:31.597Z,37.03
2022-12-31T12:29:01.619Z,35.87
2022-12-31T12:31:34.281Z,31.80
2022-12-31T12:34:02.973Z,33.80
2022-12-31T12:36:31.453Z,35.17
2022-12-31T12:39:03.378Z,33.83
2022-12-31T12:41:31.887Z,33.30
2022-12-31T12:44:04.321Z,36.03
2022-12-31T12:46:35.448Z,32.73
2022-12-31T12:49:04.787Z,36.87
2022-12-31T12:51:44.903Z,41.20
2022-12-31T12:54:20.298Z,37.00
2022-12-31T12:56:51.433Z,32.00
2022-12-31T12:59:37.821Z,32.00
2022-12-31T13:02:18.846Z,34.63
2022-12-31T13:04:53.716Z,33.93
2022-12-31T13:07:28.336Z,30.23
2022-12-31T13:10:04.187Z,34.60
2022-12-31T13:13:05.164Z,33.53
2022-12-31T13:15:25.769Z,33.50
2022-12-31T13:18:01.968Z,33.70
2022-12-31T13:20:33.164Z,34.90
2022-12-31T13:23:05.974Z,38.23
2022-12-31T13:25:39.912Z,38.13
2022-12-31T13:28:12.108Z,34.97
2022-12-31T13:30:41.812Z,37.33
2022-12-31T13:33:16.154Z,34.87
2022-12-31T13:35:47.021Z,35.90
2022-12-31T13:38:17.417Z,39.93
2022-12-31T13:40:48.323Z,38.50
2022-12-31T13:43:19.997Z,41.47
2022-12-31T13:45:50.398Z,35.10
2022-12-31T13:48:23.323Z,34.77
2022-12-31T13:50:55.240Z,36.40
2022-12-31T13:53:26.830Z,38.70
2022-12-31T13:55:58.745Z,39.27
2022-12-31T13:58:32.178Z,40.67
2022-12-31T14:01:02.720Z,39.80
2022-12-31T14:03:40.129Z,37.87
2022-12-31T14:06:11.417Z,36.77
2022-12-31T14:08:39.910Z,36.87
2022-12-31T14:11:12.657Z,35.93
2022-12-31T14:13:47.323Z,36.67
2022-12-31T14:16:20.453Z,37.27
2022-12-31T14:18:56.013Z,38.87
2022-12-31T14:21:26.067Z,37.93
2022-12-31T14:23:56.152Z,34.17
2022-12-31T14:26:27.622Z,34.83
2022-12-31T14:29:02.919Z,34.30
2022-12-31T14:31:37.357Z,38.97
2022-12-31T14:34:08.978Z,38.33
2022-12-31T14:36:42.694Z,40.50
2022-12-31T14:39:21.173Z,36.37
2022-12-31T14:41:55.738Z,34.43
2022-12-31T14:44:34.239Z,31.77
2022-12-31T14:47:08.397Z,34.70
2022-12-31T14:49:43.873Z,48.87
2022-12-31T14:52:22.627Z,39.40
2022-12-31T14:54:59.717Z,33.97
2022-12-31T14:57:29.319Z,35.90
2022-12-31T14:59:58.813Z,32.03
2022-12-31T15:02:28.198Z,31.23
2022-12-31T15:05:07.167Z,34.80
2022-12-31T15:07:37.901Z,32.77
2022-12-31T15:10:12.327Z,36.00
2022-12-31T15:12:50.527Z,35.20
2022-12-31T15:15:33.131Z,37.03
2022-12-31T15:18:07.722Z,31.33
2022-12-31T15:20:53.879Z,32.43
2022-12-31T15:23:25.043Z,36.33
2022-12-31T15:25:56.259Z,36.87
2022-12-31T15:28:33.100Z,37.07
2022-12-31T15:31:04.552Z,35.70
2022-12-31T15:33:34.316Z,41.90
2022-12-31T15:36:13.470Z,36.50
2022-12-31T15:38:43.872Z,36.70
2022-12-31T15:41:16.422Z,38.90
2022-12-31T15:43:47.334Z,38.40
2022-12-31T15:46:18.974Z,39.57
2022-12-31T15:48:52.527Z,39.50
2022-12-31T15:51:23.721Z,41.07
2022-12-31T15:53:55.313Z,36.07
2022-12-31T15:56:28.782Z,37.30
2022-12-31T15:58:59.966Z,75.47
2022-12-31T16:01:34.114Z,66.47
2022-12-31T16:04:05.695Z,46.27
2022-12-31T16:06:35.658Z,54.03
2022-12-31T16:09:07.858Z,48.73
2022-12-31T16:11:37.822Z,47.10
2022-12-31T16:14:07.061Z,39.13
2022-12-31T16:16:36.113Z,53.77
2022-12-31T16:19:04.523Z,46.07
2022-12-31T16:21:34.039Z,37.67
2022-12-31T16:24:04.112Z,47.77
2022-12-31T16:26:36.225Z,41.67
2022-12-31T16:29:05.473Z,37.83
2022-12-31T16:31:34.215Z,42.23
2022-12-31T16:34:09.328Z,38.07
2022-12-31T16:36:37.796Z,36.60
2022-12-31T16:39:23.220Z,38.73
2022-12-31T16:41:53.483Z,36.97
2022-12-31T16:44:28.522Z,43.03
2022-12-31T16:47:01.060Z,36.17
2022-12-31T16:49:30.700Z,29.87
2022-12-31T16:52:02.870Z,31.53
2022-12-31T16:54:32.421Z,52.77
2022-12-31T16:57:02.825Z,59.00
2022-12-31T16:59:35.510Z,34.40
2022-12-31T17:02:05.852Z,37.23
2022-12-31T17:04:34.403Z,34.33
2022-12-31T17:07:17.707Z,29.93
2022-12-31T17:09:46.196Z,34.20
2022-12-31T17:12:17.545Z,34.43
2022-12-31T17:14:50.311Z,34.20
2022-12-31T17:17:23.000Z,33.97
2022-12-31T17:19:52.548Z,35.70
2022-12-31T17:22:34.248Z,36.27
2022-12-31T17:25:06.095Z,44.73
2022-12-31T17:27:36.457Z,41.57
2022-12-31T17:30:24.974Z,41.13
2022-12-31T17:32:54.036Z,41.50
2022-12-31T17:35:29.861Z,38.10
2022-12-31T17:38:20.260Z,40.93
2022-12-31T17:40:51.730Z,46.00
2022-12-31T17:43:23.019Z,39.73
2022-12-31T17:45:52.642Z,44.87
2022-12-31T17:48:22.184Z,46.37
2022-12-31T17:50:51.390Z,42.20
2022-12-31T17:53:20.546Z,42.93
2022-12-31T17:55:50.099Z,47.73
2022-12-31T17:58:22.474Z,42.33
2022-12-31T18:00:56.339Z,41.53
2022-12-31T18:03:24.787Z,51.60
2022-12-31T18:05:53.239Z,56.87
2022-12-31T18:08:21.680Z,44.73
2022-12-31T18:10:50.420Z,52.27
2022-12-31T18:13:21.146Z,46.80
2022-12-31T18:15:49.926Z,43.33
2022-12-31T18:18:25.344Z,49.97
2022-12-31T18:20:55.751Z,53.77
2022-12-31T18:23:25.505Z,39.30
2022-12-31T18:25:54.108Z,38.83
2022-12-31T18:28:22.625Z,38.97
2022-12-31T18:30:51.464Z,43.07
2022-12-31T18:33:25.103Z,43.83
2022-12-31T18:36:10.380Z,39.17
2022-12-31T18:38:39.453Z,42.57
2022-12-31T18:41:08.181Z,35.00
2022-12-31T18:43:36.603Z,36.60
2022-12-31T18:46:05.130Z,34.43
2022-12-31T18:48:35.029Z,34.50
2022-12-31T18:51:03.468Z,38.87
2022-12-31T18:53:31.894Z,35.23
2022-12-31T18:56:00.353Z,34.60
2022-12-31T18:58:28.790Z,36.97
2022-12-31T19:00:57.410Z,34.03
2022-12-31T19:03:28.203Z,40.07
2022-12-31T19:05:58.096Z,34.33
2022-12-31T19:08:26.527Z,31.90
2022-12-31T19:10:54.981Z,33.33
2022-12-31T19:13:23.464Z,35.20
2022-12-31T19:15:52.633Z,33.57
2022-12-31T19:18:21.143Z,35.77
2022-12-31T19:20:49.648Z,32.37
2022-12-31T19:23:20.577Z,35.80
2022-12-31T19:25:49.878Z,34.70
2022-12-31T19:28:19.397Z,40.17
2022-12-31T19:30:48.081Z,35.87
2022-12-31T19:33:16.881Z,34.77
2022-12-31T19:35:45.454Z,31.80
2022-12-31T19:38:17.973Z,36.90
2022-12-31T19:40:48.076Z,37.37
2022-12-31T19:43:17.498Z,42.77
2022-12-31T19:45:46.113Z,38.03
2022-12-31T19:48:15.560Z,36.17
2022-12-31T19:50:44.970Z,40.07
2022-12-31T19:53:14.429Z,46.10
2022-12-31T19:55:42.923Z,38.93
2022-12-31T19:58:17.080Z,35.37
2022-12-31T20:00:51.597Z,36.87
2022-12-31T20:03:23.441Z,38.87
2022-12-31T20:05:51.961Z,35.10
2022-12-31T20:08:22.982Z,36.17
2022-12-31T20:10:51.528Z,38.30
2022-12-31T20:13:21.438Z,36.87
2022-12-31T20:15:49.846Z,35.53
2022-12-31T20:18:21.096Z,33.00
2022-12-31T20:20:55.606Z,34.87
2022-12-31T20:23:24.398Z,35.00
2022-12-31T20:25:58.500Z,43.73
2022-12-31T20:28:28.348Z,38.03
2022-12-31T20:30:56.884Z,38.17
2022-12-31T20:33:25.653Z,41.97
2022-12-31T20:35:54.286Z,40.63
2022-12-31T20:38:22.743Z,43.83
2022-12-31T20:40:51.204Z,45.50
2022-12-31T20:43:19.766Z,43.23
2022-12-31T20:45:49.760Z,41.17
2022-12-31T20:48:18.189Z,42.40
2022-12-31T20:50:55.344Z,45.90
2022-12-31T20:53:23.830Z,44.50
2022-12-31T20:55:52.240Z,41.30
2022-12-31T20:58:20.816Z,46.63
2022-12-31T21:00:51.463Z,38.90
2022-12-31T21:04:02.314Z,42.10
2022-12-31T21:06:08.999Z,40.03
2022-12-31T21:08:38.123Z,40.30
2022-12-31T21:11:26.836Z,41.23
2022-12-31T21:13:54.348Z,41.03
2022-12-31T21:16:24.294Z,44.13
2022-12-31T21:18:52.723Z,38.90
2022-12-31T21:21:21.192Z,42.27
2022-12-31T21:23:49.637Z,46.23
2022-12-31T21:26:18.156Z,44.00
2022-12-31T21:28:46.679Z,41.27
2022-12-31T21:31:15.986Z,43.20
2022-12-31T21:33:47.414Z,40.87
2022-12-31T21:36:16.213Z,40.03
2022-12-31T21:38:44.751Z,46.83
2022-12-31T21:41:35.023Z,41.13
2022-12-31T21:44:03.659Z,45.90
2022-12-31T21:46:32.331Z,40.73
2022-12-31T21:49:02.317Z,38.03
2022-12-31T21:51:31.199Z,43.50
2022-12-31T21:53:59.727Z,38.90
2022-12-31T21:56:27.121Z,37.17
2022-12-31T21:59:13.758Z,43.03
2022-12-31T22:01:59.765Z,41.87
2022-12-31T22:07:18.592Z,48.60
2022-12-31T22:09:47.124Z,49.80
2022-12-31T22:12:15.595Z,42.97
2022-12-31T22:15:14.932Z,47.67
2022-12-31T22:17:32.494Z,45.90
2022-12-31T22:20:26.201Z,44.80
2022-12-31T22:22:50.777Z,46.77
2022-12-31T22:25:19.291Z,47.67
2022-12-31T22:28:11.555Z,47.07
2022-12-31T22:30:36.589Z,48.20
2022-12-31T22:33:05.045Z,46.00
2022-12-31T22:35:35.015Z,48.33
2022-12-31T22:38:09.997Z,46.87
2022-12-31T22:40:40.612Z,46.60
2022-12-31T22:43:09.224Z,44.50
2022-12-31T22:45:38.557Z,45.03
2022-12-31T22:48:07.387Z,44.57
2022-12-31T22:50:37.301Z,51.23
2022-12-31T22:53:05.680Z,46.90
2022-12-31T22:55:34.066Z,43.20
2022-12-31T22:58:02.546Z,40.13
2022-12-31T23:00:44.064Z,46.17
2022-12-31T23:03:12.501Z,43.73
2022-12-31T23:05:42.628Z,45.33
2022-12-31T23:08:20.556Z,41.83
2022-12-31T23:11:00.767Z,40.67
2022-12-31T23:13:50.582Z,42.57
2022-12-31T23:16:37.484Z,42.97
2022-12-31T23:19:23.844Z,43.87
2022-12-31T23:22:11.484Z,48.53
2022-12-31T23:24:40.081Z,44.83
2022-12-31T23:27:08.489Z,47.63
2022-12-31T23:29:45.550Z,43.30
2022-12-31T23:32:15.420Z,48.27
2022-12-31T23:34:44.376Z,42.53
2022-12-31T23:37:14.291Z,46.50
2022-12-31T23:39:43.099Z,45.40
2022-12-31T23:42:11.536Z,44.57
2022-12-31T23:44:39.939Z,42.40
2022-12-31T23:47:08.370Z,48.60
2022-12-31T23:49:36.865Z,47.03
2022-12-31T23:52:05.521Z,47.07
2022-12-31T23:54:36.112Z,43.83
2022-12-31T23:57:04.750Z,49.67
2022-12-31T23:59:33.185Z,49.00
